European Hang Gliding Championship Class 1 2018

2018-07-08 to 2018-07-21

Task 7

2018-07-18 Task 7

Race to Goal 105.7 km

Provisional v3

No Leg Dist. Id Radius Open Close Coordinates Altitude
1 0.0 km D01 400 m 12:00 15:00 Lat: 41.3435 Lon: 21.25683 1410 m
2 SS 4.1 km B19 5000 m 13:45 19:00 Lat: 41.41733 Lon: 21.25967 847 m
3 17.9 km V15 78000 m 13:45 19:00 Lat: 41.05864 Lon: 20.61859 914 m
4 37.0 km V15 62000 m 13:45 19:00 Lat: 41.05864 Lon: 20.61859 914 m
5 56.1 km V15 78000 m 13:45 19:00 Lat: 41.05864 Lon: 20.61859 914 m
6 75.1 km V15 62000 m 13:45 19:00 Lat: 41.05864 Lon: 20.61859 914 m
7 94.2 km V15 78000 m 13:45 19:00 Lat: 41.05864 Lon: 20.61859 914 m
8 101.4 km V01 20000 m 13:45 19:00 Lat: 40.75783 Lon: 21.4605 646 m
9 ES 105.7 km A08 600 m 13:45 19:00 Lat: 40.95217 Lon: 21.40217 600 m
StartGate(s): 13:45, 14:10, 14:35

# Id Name Nat Glider Sponsor SS ES Time km/h Distance Dist.
Points
Lead.
Points
Time
Points
Arr.
Pos.
Points
Total
1 48 Thomas Weissenberger M AUT Icaro Laminar 2018 Westover Companies/Icaro/Skyline/Naviter 13:45:00 16:33:22 02:48:22 36.2 105.69 753.8 26.2 110.4 19.7 910
2 54 Dan Vyhnalik M CZE Aeros Combat 13.5 GT LAA CR 13:45:00 16:49:20 03:04:20 33.1 105.69 753.8 12.8 78.0 11.2 856
3 73 Corinna Schwiegershausen F GER Moyes RX 3 13:45:00 17:22:11 03:37:11 28.1 105.69 753.8 4.1 42.2 6.5 807
4 103 Alexander Barvinskiy M RUS Aeros Combat 12.7 14:35:00 18:22:18 03:47:18 26.8 105.69 753.8 33.1 4.5 791
5 121 Jonny Durand Jnr M AUS Moyes RX 3.5 PRO 13:45:00 105.44 752.9 15.6 769
6 49 Christian Preininger M AUT Moyes Litespeed S3,5 13:45:00 104.81 750.0 10.7 761
7 127 Yoko Sano F JPN T2C136 13:45:00 104.80 749.9 9.9 760
8 56 Petr Polách M CZE Aeros Combat 13,5 GT LAA CR; PG-Shop.cz; FLYSKIN 13:45:00 103.51 740.7 14.7 755
9 42 Carl Wallbank M GBR Moyes RX 3.5 Pro BHPA 13:45:00 103.43 740.0 13.1 753
10 33 Alessandro Ploner M ITA Icaro2000 Laminar AeCI, Icaro2000, ADIDAS, Woody Valley, Naviter 13:45:00 102.07 724.0 27.6 752
11 46 Malcolm Brown M GBR Wills Wing T2C BHPA 13:45:00 103.42 740.0 10.7 751
12 41 Dave Matthews M GBR Moyer RX 3.5 BHPA 13:45:00 103.44 740.1 8.7 749
13 32 Christian Ciech M ITA Laminar Icaro 2000 AeCI, Icaro2000, Woody Valley, G-Force 13:45:00 99.27 695.7 19.9 716
14 93 Gijs Wanders M NED Wills Wing T2C 144 13:45:00 99.42 696.6 2.3 699
15 37 Anton Moroder M ITA laminar AeCI, Icaro2000, Woody Valley 13:45:00 97.99 686.9 10.5 697
16 39 Grant Crossingham M GBR Moyes RX 3.5 Pro BHPA 13:44:47 96.97 678.6 15.9 688
17 35 Filippo Oppici M ITA WILLS WING T2C 144 AeCI, Wills Wing 14:10:00 97.95 686.6 687
18 104 Walentin Teraud M RUS Moyes RX 3.5 13:45:00 93.15 650.1 11.4 662
19 100 Anton Struganov M RUS Moyes RX4 13:45:00 91.19 639.1 14.2 653
20 43 Oliver Chitty M GBR Moyes RX5 Pro Crosscountry, Moyes, Flytec, BHPA 13:45:00 91.27 639.6 10.9 651
20 107 Erland Åmot M NOR Moyes RX 3.5 Pro 13:45:00 92.56 647.3 3.6 651
22 77 Balazs Ujhelyi M HUN Moyes RX 3.5 Pro 14:10:00 91.32 640.0 640
23 62 Christian Pollet M FRA 13:45:00 75.89 565.8 9.5 575
24 112 Canberg Özveren M TUR Aeros Combat GT 13:45:00 75.23 562.8 6.5 569
25 57 Jiri Gut M CZE Wills Wing T2C GuTComposites, LAA CR 13:45:00 72.27 545.2 6.4 552
26 47 Kathleen Rigg F GBR Moyes RX 3.5 BHPA 13:45:00 72.25 545.1 0.8 546
27 118 Saulius Guobuzas M LTU Moyes RS 4 13:45:00 72.29 545.3 545
28 74 Jörg Bajewski M GER Laminar Z9 17 13:45:00 71.15 536.0 1.0 537
29 44 Darren Brown M GBR Wills Wing T2C BHPA 13:45:00 70.88 533.8 534
30 111 Kamil DEMİRKAN M TUR Aeros Combat GT 13:45:00 69.34 519.3 519
31 101 Sasha Serebrennikova F RUS Moyes RX 3 Pro 13:45:00 66.73 498.3 498
32 110 Jochen Zeischka M BEL Moyes RX 5 Pro Plastiqual 13:45:00 63.07 479.4 0.9 480
33 125 Brad Porter M AUS Moyes RX 3.5 Pro 13:45:00 62.59 477.0 477
34 55 Petr Benes M CZE Aeros combat Green Center; Houska&Douda; LAA CR 13:45:00 59.13 456.6 457
35 71 Roland Wöhrle M GER Moyes RX 3.5 13:45:00 58.40 452.6 453
36 114 Mikolaj Przezdziak M POL Aeros Combat 12.7gt 14:10:00 58.11 450.9 451
37 75 Kajo Clauß M GER Aeros Combat 13:45:00 57.62 447.4 447
38 52 Raimund Kaiser M AUT Icaro Laminar 13.2 13:45:00 56.93 441.6 442
39 59 Vlastimil Bartas M CZE Aeros COMBAT GT 12.4 LAA Cr; AVZO 13:45:00 55.20 425.4 425
39 72 Gerd Dönhuber M GER Moyes RX 3.5 13:45:00 55.14 424.7 425
41 66 Benedikt Braun M SUI Combat 12.7 C 14:10:00 53.23 407.9 408
42 36 Marco Laurenzi M ITA Icaro Laminar AeCI, Icaro2000, Woody Valley, Digifly 13:45:00 52.44 402.1 402
43 113 Nikola Barakovski M MKD 13:45:00 49.45 381.7 382
44 126 Guy Hubbard M AUS Moyes RX 3.5 Pro 13:45:00 48.34 375.5 376
45 68 Alain Woeffray M SUI Wills Wing T2C 154 13:45:00 48.13 374.3 374
46 34 Davide Guiducci M ITA Laminar 13.2 AeCI, Icaro2000, Woody Valley 13:45:00 47.78 371.8 372
46 117 Justinas Pleikys M LTU Moyes RX 5 13:45:00 47.81 372.0 372
48 98 Emiel Jansen M NED Laminar 14.8 (2018) 13:45:00 47.38 368.0 368
49 88 Franc Peternel M SLO WILLS WING T2C 144 13:45:00 47.25 366.8 367
50 58 Petr Tucek M CZE WillsWing T2C144 AVIATIK s.r.o. 13:45:00 47.10 365.0 365
51 38 Tullio Gervasoni M ITA Wills Wing T2C AeCI, Wills Wing 13:45:00 47.03 364.1 364
51 79 László Ökrös M HUN Moyes RX 3.5 13:45:00 47.05 364.4 364
51 40 Gordon Rigg M GBR Moyes RX 3.5 Pro BHPA 13:45:00 47.05 364.4 364
54 132 Pedro L. Garcia M USA T2C 144 13:45:00 46.94 362.8 363
55 60 Francois Isoard M FRA Aeros Combat GT 12,7 13:45:00 46.86 361.4 361
56 108 Johnny Nilssen M NOR Icaro Laminar 2018 Hang Gliding Lanzarote 13:45:00 45.23 330.8 331
57 82 Daniel Martín Mota M ESP 13:45:00 44.78 322.3 322
58 61 Eric Mathurin M FRA Moyes RX 3.5 Pro 13:45:00 44.50 316.7 317
59 65 Eric Wyss M FRA Icaro Laminar 13:45:00 43.93 305.6 306
60 95 Joost Eertman M NED 13:45:00 40.79 273.6 274
61 81 Zsigmond Toth M HUN Combat Gt 13.5 13:45:00 39.56 266.9 267
62 89 Stanislav Galovec M SLO ICARO 2000, Laminar 14.1 13:45:00 37.22 253.0 253
63 123 Steve Blenkinsop M AUS Moyes RX 3.5 13:45:00 34.19 236.4 236
64 97 Sander Van Schaik M NED Icaro Laminar 13:44:56 32.51 227.6 226
65 102 Anton Bondarenko M RUS T2C 144 13:45:00 27.13 201.2 201
66 70 Primoz Gricar M GER Aeros Combat GT 13.5 13:45:00 19.87 170.8 171
67 130 Evan Smith M CAN T2C 144 13:45:00 11.80 137.5 138
68 45 Andy Hollidge M GBR Moyes RX 3.5 BHPA 13:45:00 11.11 134.2 134
69 106 Olav Opsanger M NOR Moyes RX 3.5 Pro 14:35:00 10.83 132.5 133
70 92 Arne Tänzer M NED Icaro 2000 - Laminar 13:45:00 9.49 123.0 123
70 122 Trent Brown M AUS Moyes RX 3.5 14:10:00 9.48 122.9 123
72 91 Janez Grm M SLO Combat 13.2 13:45:00 8.82 116.8 117
73 67 Damien Zahn M SUI Moyes RX 3 13:45:00 7.25 100.9 101
74 129 Hiroshi Onuma M JPN ICARO2000 Laminar 7.00 98.6 99
74 87 Matjaz Klemencic M SLO Moyes RX 3.5 Pro 7.00 98.6 99
74 63 Antoine Saraf M FRA Aeros Combat C12.7 7.00 98.6 99
74 53 Alexander Sigl M AUT WW T2C 144 14:10:00 7.00 98.6 99
74 133 Konrad Heilmann M BRA Moyes RX 3.5 Pro 7.00 98.6 99
74 128 Nagusa Akira M JPN T2C144 7.00 98.6 99
74 115 Jaroslav Sojka M SVK Moyes RX 5 Pro 14:10:00 7.00 98.6 99
74 109 Tormod Helgesen M NOR Moyes RX 3.5 14:35:00 7.00 98.6 99
74 51 Dietmar Tschabrun M AUT Aeros Combat 12,7 GT 7.00 98.6 99
74 94 Mario Campanella M NED WW - T2C 7.00 98.6 99
74 105 Anatoly Reyter M RUS Wills Wing T2C-136 7.00 98.6 99
74 80 Atilla Kis M HUN Aeros Combat 13:45:00 7.00 98.6 99
74 99 Gennadiy Khramov M RUS WillsWing 144 7.00 98.6 99
74 124 Josh Woods M AUS Moyes RX 3.5 Pro 13:45:00 7.00 98.6 99

Penalties

Note: % penalty is used to calc penalty as a % of total score. Both types can be combined. None affect the scoring of other pilots.
Id Name % penalty points penalty Reason
39 Grant Crossingham 7 Jumped the gun by 0:13
97 Sander Van Schaik 2 Jumped the gun by 0:04

Pilots absent from task (ABS)

Id Name
90 Peter Kejzar
96 Araldo van de Kraats

Pilots not yet processed (NYP)

Id Name

Task statistics

param value
ss_distance 101.606
task_distance 105.693
launch_to_ess_distance 105.693
no_of_pilots_present 87
no_of_pilots_flying 87
no_of_pilots_lo 83
no_of_pilots_reaching_nom_dist 22
no_of_pilots_reaching_es 4
no_of_pilots_reaching_goal 4
sum_flown_distance 4650.071
best_dist 105.693
best_time 2.80611111111111
worst_time 3.78833333333333
no_of_pilots_in_competition 89
no_of_pilots_landed_before_stop 0
sum_dist_over_min 4068.35
sum_real_dist_over_min 4068.35
sum_flown_distances 4650.071
best_real_dist 105.693
last_start_time 2018-07-18T14:35:00+02:00
first_start_time 2018-07-18T13:45:00+02:00
first_finish_time 2018-07-18T16:33:22+02:00
max_time_to_get_time_points 4.48125621262056
no_of_pilots_with_time_points 4
goalratio 0.0459770114942529
arrival_weight 0.021623461092812
departure_weight 0
leading_weight 0.0302728455299368
time_weight 0.121091382119747
distance_weight 0.827012311257504
smallest_leading_coefficient 1.64618126716034
available_points_distance 753.807105082298
available_points_time 110.372654631111
available_points_departure 0
available_points_leading 27.5931636577777
available_points_arrival 19.7094026126983
time_validity 1
launch_validity 1
distance_validity 0.911482325983885
stop_validity 1
day_quality 0.911482325983885
ftv_day_validity 0.911482325983885
time_points_stop_correction 0

Scoring formula settings

param value
id GAP2016
min_dist 7
nom_dist 80
nom_time 1.75
nom_launch 0.96
nom_goal 0.3
day_quality_override 0
bonus_gr 5
jump_the_gun_factor 2
jump_the_gun_max 300
normalize_1000_before_day_quality 0
time_points_if_not_in_goal 0.8
use_1000_points_for_max_day_quality 0
use_arrival_position_points 1
use_arrival_time_points 0
use_departure_points 0
use_difficulty_for_distance_points 1
use_distance_points 1
use_distance_squared_for_LC 1
use_leading_points 1
use_semi_circle_control_zone_for_goal_line 0
use_time_points 1
scoring_altitude QNH
final_glide_decelerator none
no_final_glide_decelerator_reason
min_time_span_for_valid_task 90
score_back_time 15
use_proportional_leading_weight_if_nobody_in_goal 0
double_leading_weight 0
Report created: 2018-07-19T08:08:27+02:00

FS development, maintenance and support by